Time;durP1;ratioP1;P1;durP2;ratioP2;P2;SDS_P1;SDS_P2;PMS_P1;PMS_P2;Temp;Humidity;BMP_temperature;BMP_pressure;BME280_temperature;BME280_humidity;BME280_pressure;Samples;Min_cycle;Max_cycle;Signal;HPM_P1;HPM_P2
2022/07/03 00:01:43;;;;;;;53.27;49.73;;;16.00;73.20;;;;;;4981823;28;20305;-66
2022/07/03 00:04:09;;;;;;;68.33;63.93;;;15.90;73.20;;;;;;5004912;28;20462;-66
2022/07/03 00:06:35;;;;;;;62.37;58.47;;;15.90;74.00;;;;;;5016758;28;20129;-66
2022/07/03 00:09:04;;;;;;;54.53;51.33;;;15.80;74.70;;;;;;5005486;28;20120;-66
2022/07/03 00:11:29;;;;;;;49.20;46.10;;;15.70;74.40;;;;;;5021864;28;20046;-66
2022/07/03 00:13:55;;;;;;;43.07;40.53;;;15.60;74.70;;;;;;5005120;28;20401;-66
2022/07/03 00:16:21;;;;;;;46.47;43.67;;;15.60;74.70;;;;;;4989390;28;20052;-66
2022/07/03 00:18:47;;;;;;;44.37;41.80;;;15.50;74.80;;;;;;4996570;28;20531;-66
2022/07/03 00:21:20;;;;;;;27.50;25.90;;;15.40;74.60;;;;;;5004607;28;20518;-66
2022/07/03 00:23:53;;;;;;;34.37;32.30;;;15.40;74.50;;;;;;5001497;28;20281;-66
2022/07/03 00:26:20;;;;;;;25.27;23.70;;;15.30;74.70;;;;;;5018445;28;20509;-66
2022/07/03 00:28:47;;;;;;;32.53;30.50;;;15.30;74.50;;;;;;5003863;28;20713;-66
2022/07/03 00:31:14;;;;;;;42.27;39.83;;;15.30;75.20;;;;;;5017621;28;20838;-66
2022/07/03 00:33:41;;;;;;;32.60;30.73;;;15.20;75.60;;;;;;5004869;28;20312;-66
2022/07/03 00:36:07;;;;;;;29.57;27.70;;;15.10;76.10;;;;;;5001076;28;20347;-66
2022/07/03 00:38:33;;;;;;;25.60;24.00;;;15.10;76.20;;;;;;5005495;28;20388;-66
2022/07/03 00:41:02;;;;;;;20.77;19.50;;;15.00;76.00;;;;;;4989055;28;20391;-66
2022/07/03 00:43:28;;;;;;;15.60;14.60;;;15.00;75.80;;;;;;5004823;28;20116;-66
2022/07/03 00:45:54;;;;;;;15.77;14.77;;;15.00;75.60;;;;;;4999174;28;20319;-66
2022/07/03 00:48:21;;;;;;;25.03;23.43;;;14.90;75.30;;;;;;5004935;28;20057;-67
2022/07/03 00:50:52;;;;;;;13.97;12.87;;;14.90;75.40;;;;;;5005541;28;20769;-67
2022/07/03 00:53:27;;;;;;;19.37;18.07;;;14.90;75.40;;;;;;5004886;28;20289;-67
2022/07/03 00:55:54;;;;;;;15.77;14.73;;;14.90;75.30;;;;;;4996820;28;20650;-67
2022/07/03 00:58:20;;;;;;;15.00;14.00;;;14.90;75.40;;;;;;4983881;28;20498;-67
2022/07/03 01:00:50;;;;;;;25.50;23.87;;;14.90;75.40;;;;;;5004864;28;20309;-67
2022/07/03 01:03:17;;;;;;;22.03;20.57;;;14.80;76.20;;;;;;4994542;28;20276;-65
2022/07/03 01:05:48;;;;;;;22.97;21.40;;;14.80;76.70;;;;;;5005197;28;20346;-67
2022/07/03 01:08:32;;;;;;;24.43;22.67;;;14.70;76.90;;;;;;5004950;28;20308;-65
2022/07/03 01:11:07;;;;;;;21.87;20.53;;;14.70;77.20;;;;;;5004773;28;20297;-65
2022/07/03 01:13:48;;;;;;;16.90;15.75;;;14.60;77.40;;;;;;5021711;28;21110;-65
2022/07/03 01:16:41;;;;;;;12.10;11.30;;;14.60;77.60;;;;;;4998409;28;20041;-65
2022/07/03 01:19:10;;;;;;;15.33;14.17;;;14.50;77.20;;;;;;5003239;28;20289;-65
2022/07/03 01:21:39;;;;;;;16.73;15.60;;;14.50;77.10;;;;;;5004956;28;20383;-65
2022/07/03 01:24:26;;;;;;;20.33;19.03;;;14.40;77.40;;;;;;5004819;28;20296;-65
2022/07/03 01:26:59;;;;;;;19.87;18.57;;;14.40;78.50;;;;;;5004766;28;20330;-66
2022/07/03 01:29:38;;;;;;;13.57;12.67;;;14.30;78.80;;;;;;4988335;28;20295;-65
2022/07/03 01:32:06;;;;;;;17.87;16.17;;;14.30;78.50;;;;;;5004860;28;20281;-66
2022/07/03 01:34:39;;;;;;;18.47;17.27;;;14.30;78.30;;;;;;4991793;28;20285;-66
2022/07/03 01:37:09;;;;;;;12.67;11.57;;;14.20;78.10;;;;;;5009059;28;20649;-66
2022/07/03 01:39:36;;;;;;;12.40;11.33;;;14.20;77.90;;;;;;5008529;28;20792;-66
2022/07/03 01:42:02;;;;;;;15.20;14.10;;;14.20;77.90;;;;;;5007649;28;20304;-66
2022/07/03 01:44:30;;;;;;;14.47;13.20;;;14.20;77.80;;;;;;5024495;28;20348;-66
2022/07/03 01:46:58;;;;;;;14.50;13.30;;;14.20;77.80;;;;;;5002320;28;20299;-66
2022/07/03 01:49:26;;;;;;;13.93;12.87;;;14.20;78.00;;;;;;4992422;28;20291;-66
2022/07/03 01:51:53;;;;;;;12.97;11.93;;;14.20;77.90;;;;;;5008118;28;20316;-66
2022/07/03 01:54:22;;;;;;;13.63;12.43;;;14.30;77.60;;;;;;5009137;28;20284;-66
2022/07/03 01:56:48;;;;;;;9.67;8.63;;;14.30;77.50;;;;;;4991914;28;20308;-66
2022/07/03 01:59:14;;;;;;;9.73;8.87;;;14.30;77.40;;;;;;4975219;28;20785;-66
2022/07/03 02:01:57;;;;;;;10.83;9.83;;;14.30;77.20;;;;;;5002518;28;20462;-66
2022/07/03 02:04:33;;;;;;;9.30;8.63;;;14.20;77.20;;;;;;5011760;28;20038;-66
2022/07/03 02:07:07;;;;;;;10.17;9.27;;;14.20;77.10;;;;;;5016225;28;20277;-66
2022/07/03 02:10:04;;;;;;;9.20;8.30;;;14.20;77.10;;;;;;5007989;28;20688;-66
2022/07/03 02:12:38;;;;;;;8.37;7.20;;;14.20;77.00;;;;;;4999073;28;20077;-65
2022/07/03 02:15:07;;;;;;;7.77;6.97;;;14.10;76.90;;;;;;5008025;28;20407;-67
2022/07/03 02:17:42;;;;;;;9.47;8.47;;;14.10;76.80;;;;;;5007549;28;20284;-67
2022/07/03 02:20:09;;;;;;;7.00;6.40;;;14.10;76.80;;;;;;5006944;28;20369;-67
2022/07/03 02:22:36;;;;;;;10.13;7.80;;;14.10;76.80;;;;;;5001859;28;20601;-67
2022/07/03 02:25:07;;;;;;;12.27;11.27;;;14.10;77.00;;;;;;5007974;28;20648;-67
2022/07/03 02:27:46;;;;;;;15.17;14.07;;;14.10;77.70;;;;;;4983974;28;20288;-67
2022/07/03 02:30:13;;;;;;;20.13;18.43;;;14.10;78.30;;;;;;4987275;28;20669;-67
2022/07/03 02:32:44;;;;;;;17.90;16.67;;;14.10;78.50;;;;;;5007062;28;20648;-67
2022/07/03 02:35:24;;;;;;;15.43;14.23;;;14.20;79.10;;;;;;5007562;28;20285;-67
2022/07/03 02:37:55;;;;;;;14.10;12.67;;;14.20;79.60;;;;;;5004832;28;20383;-67
2022/07/03 02:40:30;;;;;;;11.10;9.93;;;14.20;79.40;;;;;;4999319;28;20384;-67
2022/07/03 02:43:14;;;;;;;10.77;9.77;;;14.10;79.30;;;;;;5005959;28;20285;-67
2022/07/03 02:45:59;;;;;;;10.03;9.17;;;14.10;79.20;;;;;;5004538;28;20045;-67
2022/07/03 02:48:34;;;;;;;12.23;11.02;;;14.10;79.60;;;;;;4991243;28;20277;-67
2022/07/03 02:51:08;;;;;;;10.63;9.48;;;14.20;79.60;;;;;;5018190;28;20034;-67
2022/07/03 02:53:41;;;;;;;10.65;9.77;;;14.20;79.50;;;;;;5001818;28;20056;-67
2022/07/03 02:56:27;;;;;;;10.90;10.00;;;14.20;79.70;;;;;;5007161;28;20087;-67
2022/07/03 02:59:14;;;;;;;12.33;10.10;;;14.20;80.00;;;;;;4998157;28;20292;-67
2022/07/03 03:01:55;;;;;;;12.30;10.97;;;14.30;80.50;;;;;;5005942;28;20331;-67
2022/07/03 03:04:31;;;;;;;11.57;10.50;;;14.40;80.30;;;;;;5005959;28;20311;-67
2022/07/03 03:07:10;;;;;;;9.10;8.27;;;14.50;80.40;;;;;;5001489;28;20285;-67
2022/07/03 03:09:44;;;;;;;10.63;8.83;;;14.50;80.40;;;;;;5006859;28;20841;-67
2022/07/03 03:12:12;;;;;;;10.17;9.27;;;14.60;80.20;;;;;;5006757;28;20792;-67
2022/07/03 03:14:54;;;;;;;9.53;8.17;;;14.60;80.00;;;;;;4986178;28;20285;-67
2022/07/03 03:17:24;;;;;;;9.97;8.20;;;14.60;79.90;;;;;;4986471;28;20691;-67
2022/07/03 03:19:58;;;;;;;8.33;7.37;;;14.60;79.60;;;;;;4984761;28;20296;-67
2022/07/03 03:22:59;;;;;;;9.75;8.27;;;14.60;79.80;;;;;;5005638;28;20332;-67
2022/07/03 03:25:25;;;;;;;9.43;8.63;;;14.60;79.90;;;;;;5005217;28;20042;-66
2022/07/03 03:27:50;;;;;;;11.83;10.10;;;14.60;79.80;;;;;;5006758;28;20287;-67
2022/07/03 03:30:16;;;;;;;9.33;8.43;;;14.60;79.90;;;;;;4990029;28;20100;-67
2022/07/03 03:32:42;;;;;;;10.40;8.93;;;14.70;80.10;;;;;;5005775;28;20046;-67
2022/07/03 03:35:08;;;;;;;9.80;8.90;;;14.70;80.00;;;;;;5005419;28;20510;-67
2022/07/03 03:37:34;;;;;;;10.83;9.57;;;14.70;79.90;;;;;;5022295;28;20041;-67
2022/07/03 03:40:05;;;;;;;9.07;8.17;;;14.70;80.40;;;;;;5005776;28;20941;-67
2022/07/03 03:42:31;;;;;;;11.30;9.97;;;14.70;80.40;;;;;;5001201;28;20045;-67
2022/07/03 03:44:56;;;;;;;9.53;8.63;;;14.70;80.30;;;;;;4988090;28;20743;-67
2022/07/03 03:47:22;;;;;;;8.93;8.03;;;14.70;80.50;;;;;;4982204;28;20049;-67
2022/07/03 03:49:48;;;;;;;9.67;8.77;;;14.80;80.50;;;;;;5000348;28;20092;-67
2022/07/03 03:52:13;;;;;;;10.03;9.13;;;14.80;80.50;;;;;;5014696;28;20096;-67
2022/07/03 03:54:39;;;;;;;9.50;8.47;;;14.80;80.20;;;;;;5005261;28;20037;-67
2022/07/03 03:57:19;;;;;;;10.83;9.30;;;14.90;80.20;;;;;;5005524;28;20486;-66
2022/07/03 03:59:45;;;;;;;10.33;9.43;;;15.00;80.40;;;;;;5002705;28;20053;-66
2022/07/03 04:02:12;;;;;;;8.30;7.60;;;15.10;80.40;;;;;;4982031;28;20371;-66
2022/07/03 04:04:38;;;;;;;9.37;8.30;;;15.30;80.60;;;;;;5005960;28;20096;-66
2022/07/03 04:07:04;;;;;;;9.57;8.60;;;15.40;80.50;;;;;;5002072;28;20289;-66
2022/07/03 04:09:30;;;;;;;8.67;7.77;;;15.60;80.00;;;;;;5006105;28;20143;-66
2022/07/03 04:11:56;;;;;;;9.37;8.47;;;15.70;80.10;;;;;;5005418;28;20324;-66
2022/07/03 04:14:22;;;;;;;10.10;9.30;;;15.90;80.00;;;;;;4983882;28;20042;-66
2022/07/03 04:16:47;;;;;;;8.83;7.97;;;16.00;79.80;;;;;;5005852;28;20289;-66
2022/07/03 04:19:13;;;;;;;9.27;8.37;;;16.00;79.80;;;;;;5005675;28;20045;-66
2022/07/03 04:21:39;;;;;;;12.10;11.17;;;16.00;79.70;;;;;;5018636;28;20483;-66
2022/07/03 04:24:05;;;;;;;9.90;9.00;;;16.10;79.60;;;;;;5016618;28;20030;-66
2022/07/03 04:26:30;;;;;;;10.00;9.00;;;16.10;79.90;;;;;;5020099;28;20029;-66
2022/07/03 04:28:56;;;;;;;10.67;9.67;;;16.10;79.80;;;;;;5004600;28;20038;-66
2022/07/03 04:31:22;;;;;;;8.97;8.07;;;16.10;80.00;;;;;;5005316;28;20073;-66
2022/07/03 04:33:47;;;;;;;8.80;7.93;;;16.10;79.90;;;;;;5005342;28;20049;-66
2022/07/03 04:36:14;;;;;;;11.93;9.10;;;16.00;80.00;;;;;;5001806;28;20045;-66
2022/07/03 04:38:39;;;;;;;8.43;7.63;;;16.00;80.10;;;;;;5005127;28;20045;-66
2022/07/03 04:41:05;;;;;;;9.30;7.77;;;16.00;80.20;;;;;;5005265;28;20305;-66
2022/07/03 04:43:31;;;;;;;8.73;7.93;;;16.00;80.20;;;;;;4988770;28;20125;-66
2022/07/03 04:45:56;;;;;;;9.87;9.13;;;16.10;80.00;;;;;;5003039;28;20573;-66
2022/07/03 04:48:22;;;;;;;8.57;7.43;;;16.20;79.90;;;;;;4988637;28;20057;-66
2022/07/03 04:50:48;;;;;;;8.13;7.07;;;16.20;79.70;;;;;;5021232;28;20046;-66
2022/07/03 04:53:13;;;;;;;7.80;7.10;;;16.20;79.60;;;;;;4988770;28;20045;-66
2022/07/03 04:55:39;;;;;;;6.67;6.17;;;16.30;79.30;;;;;;5005130;28;20070;-66
2022/07/03 04:58:05;;;;;;;8.13;6.53;;;16.30;79.70;;;;;;4988810;28;20054;-66
2022/07/03 05:00:30;;;;;;;6.33;5.73;;;16.50;79.50;;;;;;4988409;28;20633;-66
2022/07/03 05:02:56;;;;;;;6.80;6.07;;;16.70;79.30;;;;;;4989000;28;20641;-66
2022/07/03 05:05:22;;;;;;;5.63;4.93;;;16.90;79.00;;;;;;5005710;28;20076;-66
2022/07/03 05:07:48;;;;;;;5.00;4.50;;;17.00;78.50;;;;;;5006380;28;20046;-66
2022/07/03 05:10:14;;;;;;;4.70;4.10;;;17.10;77.90;;;;;;5008675;28;20355;-66
2022/07/03 05:12:39;;;;;;;3.77;3.47;;;17.10;77.40;;;;;;5008979;28;20139;-67
2022/07/03 05:15:06;;;;;;;4.43;3.33;;;17.10;77.00;;;;;;4992896;28;20145;-67
2022/07/03 05:17:33;;;;;;;3.80;3.33;;;17.00;76.90;;;;;;4992017;28;20068;-67
2022/07/03 05:22:42;;;;;;;4.27;3.13;;;16.90;76.50;;;;;;5005665;28;20305;-66
2022/07/03 05:25:08;;;;;;;5.77;3.37;;;16.90;76.70;;;;;;4986584;28;20285;-67
2022/07/03 05:27:37;;;;;;;4.00;3.17;;;16.90;76.90;;;;;;5008617;28;20042;-66
2022/07/03 05:30:04;;;;;;;4.43;3.13;;;16.90;76.90;;;;;;5008320;28;20507;-66
2022/07/03 05:32:30;;;;;;;3.90;3.50;;;16.90;77.20;;;;;;5008551;28;20912;-66
2022/07/03 05:34:55;;;;;;;3.13;2.83;;;16.90;77.40;;;;;;5008394;28;20383;-66
2022/07/03 05:37:21;;;;;;;3.93;3.63;;;17.00;77.50;;;;;;4987701;28;20486;-67
2022/07/03 05:39:47;;;;;;;4.23;3.80;;;17.20;77.30;;;;;;5002133;28;20049;-66
2022/07/03 05:42:12;;;;;;;3.50;3.20;;;17.60;77.20;;;;;;5008132;28;20046;-66
2022/07/03 05:44:38;;;;;;;3.43;2.73;;;18.40;76.10;;;;;;5008428;28;20045;-67
2022/07/03 05:47:04;;;;;;;4.87;4.37;;;19.60;72.60;;;;;;4991616;28;20095;-67
2022/07/03 05:49:29;;;;;;;3.20;2.93;;;20.30;69.10;;;;;;5008009;28;20406;-67
2022/07/03 05:51:55;;;;;;;4.37;3.20;;;20.60;67.40;;;;;;5008423;28;20038;-67
2022/07/03 05:54:21;;;;;;;5.70;5.20;;;21.10;66.60;;;;;;4989058;28;20549;-67
2022/07/03 05:56:47;;;;;;;4.50;3.20;;;21.70;64.50;;;;;;5005672;28;20061;-66
2022/07/03 05:59:12;;;;;;;3.07;2.77;;;22.40;64.00;;;;;;5007895;28;20284;-66
2022/07/03 06:01:38;;;;;;;2.07;1.37;;;22.90;62.40;;;;;;4989126;28;20053;-67
2022/07/03 06:04:04;;;;;;;3.17;1.20;;;23.00;60.60;;;;;;4990601;28;20095;-67
2022/07/03 06:06:29;;;;;;;4.10;1.23;;;23.10;60.30;;;;;;4999289;28;20453;-66
2022/07/03 06:08:55;;;;;;;4.30;1.50;;;23.20;59.80;;;;;;5008147;28;20483;-66
2022/07/03 06:11:21;;;;;;;3.77;1.20;;;23.40;59.40;;;;;;5007544;28;20399;-66
2022/07/03 06:13:47;;;;;;;2.50;1.30;;;22.90;59.60;;;;;;4986058;28;20053;-67
2022/07/03 06:16:13;;;;;;;2.80;1.27;;;22.30;61.10;;;;;;5007461;28;20481;-67
2022/07/03 06:18:38;;;;;;;3.03;1.80;;;21.80;62.60;;;;;;5006268;28;20050;-67
2022/07/03 06:21:04;;;;;;;3.50;1.23;;;21.50;63.10;;;;;;4985561;28;20046;-67
2022/07/03 06:23:30;;;;;;;3.43;1.03;;;21.50;63.80;;;;;;5005446;28;20046;-67
2022/07/03 06:25:55;;;;;;;2.60;1.30;;;22.10;63.00;;;;;;5000084;28;20037;-67
2022/07/03 06:28:21;;;;;;;3.73;1.73;;;22.80;61.20;;;;;;5007984;28;20041;-67
2022/07/03 06:30:46;;;;;;;1.77;1.00;;;23.60;60.20;;;;;;4995035;28;20494;-67
2022/07/03 06:33:12;;;;;;;1.83;1.10;;;24.20;58.90;;;;;;4992275;28;20526;-67
2022/07/03 06:35:38;;;;;;;2.63;0.83;;;24.50;57.50;;;;;;5007542;28;20052;-67
2022/07/03 06:38:04;;;;;;;2.13;1.30;;;24.70;56.70;;;;;;5007540;28;20107;-67
2022/07/03 06:40:30;;;;;;;1.83;0.40;;;24.50;55.40;;;;;;4990789;28;20073;-67
2022/07/03 06:42:56;;;;;;;1.47;0.40;;;24.40;55.40;;;;;;5006396;28;20046;-67
2022/07/03 06:45:21;;;;;;;3.00;0.30;;;24.40;55.30;;;;;;4960832;28;20546;-67
2022/07/03 06:47:47;;;;;;;4.23;1.70;;;23.80;55.90;;;;;;4990714;28;20042;-67
2022/07/03 06:50:13;;;;;;;4.40;0.77;;;23.70;57.30;;;;;;5006617;28;20042;-67
2022/07/03 06:52:39;;;;;;;1.63;0.43;;;23.90;57.30;;;;;;5000454;28;20042;-67
2022/07/03 06:55:05;;;;;;;2.63;0.50;;;23.90;56.30;;;;;;4993410;28;20057;-67
2022/07/03 06:57:31;;;;;;;2.47;0.43;;;23.80;55.90;;;;;;4992483;28;20533;-67
2022/07/03 06:59:57;;;;;;;3.60;0.53;;;23.70;56.30;;;;;;5019688;28;20161;-66
2022/07/03 07:02:23;;;;;;;3.57;0.40;;;23.40;57.10;;;;;;5001008;28;20538;-66
2022/07/03 07:04:49;;;;;;;3.40;0.60;;;23.40;57.40;;;;;;4993266;28;20038;-67
2022/07/03 07:07:14;;;;;;;3.57;0.80;;;23.40;57.60;;;;;;4981303;28;20041;-67
2022/07/03 07:09:40;;;;;;;3.63;0.30;;;22.70;58.10;;;;;;5005900;28;20038;-67
2022/07/03 07:12:06;;;;;;;1.67;0.40;;;22.30;58.80;;;;;;4974345;28;20511;-67
2022/07/03 07:14:32;;;;;;;2.77;0.50;;;22.10;59.10;;;;;;4991018;28;20045;-67
2022/07/03 07:16:57;;;;;;;4.50;0.60;;;22.00;59.90;;;;;;4989935;28;20510;-67
2022/07/03 07:19:23;;;;;;;3.10;0.33;;;21.90;59.70;;;;;;4973066;28;20399;-67
2022/07/03 07:21:49;;;;;;;2.30;0.40;;;21.70;59.70;;;;;;5006033;28;20498;-67
2022/07/03 07:24:14;;;;;;;4.63;0.97;;;21.40;60.10;;;;;;4999358;28;20383;-67
2022/07/03 07:26:40;;;;;;;3.87;0.70;;;21.20;61.10;;;;;;4990374;28;20555;-66
2022/07/03 07:29:06;;;;;;;3.03;0.40;;;21.00;62.00;;;;;;5005771;28;20125;-66
2022/07/03 07:31:32;;;;;;;2.20;0.60;;;21.00;61.50;;;;;;4985748;28;20038;-66
2022/07/03 07:33:57;;;;;;;2.50;0.30;;;20.90;61.30;;;;;;5004557;28;20436;-66
2022/07/03 07:36:23;;;;;;;3.63;0.30;;;20.90;62.30;;;;;;5001292;28;20152;-66
2022/07/03 07:38:49;;;;;;;4.83;0.63;;;20.90;61.90;;;;;;5004984;28;20054;-67
2022/07/03 07:41:14;;;;;;;3.60;0.40;;;20.90;61.20;;;;;;5005822;28;20085;-67
2022/07/03 07:43:40;;;;;;;4.73;0.63;;;20.90;61.70;;;;;;5005880;28;20046;-67
2022/07/03 07:46:06;;;;;;;2.90;0.30;;;21.00;61.80;;;;;;5000225;28;20036;-67
2022/07/03 07:48:35;;;;;;;2.53;0.33;;;21.10;60.50;;;;;;5018133;28;20061;-67
2022/07/03 07:51:01;;;;;;;1.67;0.30;;;21.10;60.40;;;;;;5003459;28;20525;-67
2022/07/03 07:53:27;;;;;;;1.77;0.43;;;21.30;60.10;;;;;;4984486;28;20095;-67
2022/07/03 07:55:52;;;;;;;1.33;0.50;;;21.40;59.30;;;;;;5002859;28;20100;-67
2022/07/03 07:58:18;;;;;;;3.03;0.50;;;21.30;59.00;;;;;;5000872;28;20068;-67
2022/07/03 08:06:14;;;;;;;2.67;0.60;;;21.50;60.10;;;;;;5002415;28;20443;-67
2022/07/03 08:08:40;;;;;;;0.77;0.20;;;21.70;60.20;;;;;;4994137;28;20033;-67
2022/07/03 08:11:06;;;;;;;3.47;0.50;;;21.80;58.90;;;;;;5001769;28;20099;-67
2022/07/03 08:13:32;;;;;;;2.93;0.43;;;22.00;58.30;;;;;;4995982;28;20046;-67
2022/07/03 08:15:59;;;;;;;1.80;0.30;;;22.20;57.40;;;;;;4976731;28;20096;-67
2022/07/03 08:18:24;;;;;;;1.97;0.40;;;22.30;57.00;;;;;;5002472;28;20045;-67
2022/07/03 08:20:50;;;;;;;1.07;0.20;;;22.50;55.90;;;;;;5005373;28;20262;-67
2022/07/03 08:23:16;;;;;;;2.83;0.77;;;22.70;56.40;;;;;;5001246;28;20068;-67
2022/07/03 08:25:42;;;;;;;5.67;0.70;;;22.90;56.50;;;;;;4999093;28;20405;-67
2022/07/03 08:28:08;;;;;;;1.90;0.40;;;22.80;56.30;;;;;;4999271;28;20042;-67
2022/07/03 08:30:33;;;;;;;1.53;0.40;;;22.70;56.00;;;;;;4986005;28;20449;-67
2022/07/03 08:32:59;;;;;;;4.47;0.80;;;22.50;55.90;;;;;;5002395;28;20050;-67
2022/07/03 08:35:26;;;;;;;3.67;0.70;;;22.30;56.40;;;;;;4997534;28;20100;-67
2022/07/03 08:37:52;;;;;;;2.03;0.47;;;22.00;56.30;;;;;;4998877;28;20065;-67
2022/07/03 08:40:19;;;;;;;2.97;0.60;;;21.80;57.20;;;;;;4978631;28;20418;-67
2022/07/03 08:42:57;;;;;;;2.40;0.50;;;21.70;58.40;;;;;;5005267;28;20892;-67
2022/07/03 08:45:24;;;;;;;4.00;0.70;;;21.50;60.00;;;;;;5004130;28;20095;-67
2022/07/03 08:47:52;;;;;;;2.97;0.60;;;21.70;59.70;;;;;;4991064;28;20374;-67
2022/07/03 08:50:19;;;;;;;4.87;0.67;;;21.90;60.60;;;;;;5008812;28;20116;-67
2022/07/03 08:52:46;;;;;;;3.37;0.57;;;22.10;59.00;;;;;;4989159;28;20168;-67
2022/07/03 08:55:13;;;;;;;4.50;1.33;;;22.00;58.10;;;;;;5008077;28;20100;-67
2022/07/03 08:57:40;;;;;;;5.23;0.90;;;22.00;59.20;;;;;;4988074;28;20121;-67
2022/07/03 09:00:09;;;;;;;3.07;0.60;;;22.00;59.90;;;;;;5000853;28;20465;-67
2022/07/03 09:02:35;;;;;;;3.47;0.70;;;22.10;59.40;;;;;;4998965;28;20116;-67
2022/07/03 09:05:02;;;;;;;2.37;0.60;;;21.90;59.60;;;;;;4991753;28;20037;-67
2022/07/03 09:07:34;;;;;;;12.63;1.07;;;21.80;60.20;;;;;;4995303;28;20044;-66
2022/07/03 09:10:02;;;;;;;4.10;0.70;;;21.50;59.80;;;;;;5002439;28;20069;-66
2022/07/03 09:12:31;;;;;;;4.33;0.67;;;21.60;60.40;;;;;;5007844;28;20069;-66
2022/07/03 09:14:56;;;;;;;2.50;0.70;;;21.90;60.10;;;;;;4992189;28;20132;-66
2022/07/03 09:17:22;;;;;;;6.30;1.20;;;22.30;59.70;;;;;;4987769;28;20125;-66
2022/07/03 09:19:48;;;;;;;3.63;0.77;;;22.70;60.30;;;;;;4971730;28;20413;-66
2022/07/03 09:22:25;;;;;;;2.90;0.63;;;23.10;59.10;;;;;;4991984;28;20041;-66
2022/07/03 09:24:54;;;;;;;5.30;0.93;;;23.60;57.80;;;;;;5008523;28;20034;-66
2022/07/03 09:27:22;;;;;;;6.70;1.40;;;23.80;57.70;;;;;;5008082;28;20708;-66
2022/07/03 09:29:57;;;;;;;4.93;1.00;;;23.90;57.50;;;;;;5005282;28;20500;-66
2022/07/03 09:32:23;;;;;;;3.57;0.83;;;23.90;57.60;;;;;;5008655;28;20046;-66
2022/07/03 09:34:49;;;;;;;5.07;1.10;;;24.10;57.50;;;;;;4991854;28;20052;-67
2022/07/03 09:37:25;;;;;;;4.73;0.80;;;24.50;58.00;;;;;;5003967;28;20042;-66
2022/07/03 09:39:58;;;;;;;2.80;0.67;;;24.80;55.70;;;;;;5003368;28;20046;-66
2022/07/03 09:42:24;;;;;;;4.53;0.87;;;24.90;53.90;;;;;;5000890;28;20046;-66
2022/07/03 09:44:54;;;;;;;3.13;0.70;;;24.20;53.50;;;;;;4990621;28;20296;-67
2022/07/03 09:47:24;;;;;;;7.43;1.07;;;23.60;55.80;;;;;;5004194;28;20053;-67
2022/07/03 09:50:02;;;;;;;3.73;0.90;;;23.10;56.70;;;;;;5006601;28;20050;-67
2022/07/03 09:52:34;;;;;;;4.30;0.80;;;22.60;57.90;;;;;;4989949;28;20045;-67
2022/07/03 09:55:01;;;;;;;5.13;1.10;;;22.40;59.30;;;;;;4983397;28;20042;-67
2022/07/03 09:57:29;;;;;;;6.10;1.20;;;22.30;60.00;;;;;;5005411;28;20057;-67
2022/07/03 10:00:27;;;;;;;3.07;0.83;;;22.20;60.20;;;;;;5000481;28;20498;-66
2022/07/03 10:03:04;;;;;;;3.50;1.00;;;22.30;59.70;;;;;;4984346;28;20125;-67
2022/07/03 10:05:31;;;;;;;3.80;1.00;;;22.60;59.80;;;;;;5004883;28;20492;-67
2022/07/03 10:08:10;;;;;;;10.17;1.30;;;22.90;59.60;;;;;;5006602;28;20042;-67
2022/07/03 10:10:38;;;;;;;6.67;1.40;;;22.80;58.90;;;;;;5006722;28;20073;-67
2022/07/03 10:13:04;;;;;;;8.03;1.90;;;22.60;59.50;;;;;;5005974;28;20047;-67
2022/07/03 10:15:35;;;;;;;5.70;1.10;;;22.70;59.90;;;;;;4999683;28;20046;-67
2022/07/03 10:18:04;;;;;;;3.47;0.93;;;22.90;60.70;;;;;;5007012;28;20045;-66
2022/07/03 10:20:35;;;;;;;2.50;0.83;;;23.10;59.50;;;;;;5003842;28;20419;-67
2022/07/03 10:23:02;;;;;;;5.67;1.20;;;23.10;59.20;;;;;;5001105;28;20129;-67
2022/07/03 10:25:30;;;;;;;6.73;1.40;;;23.20;59.10;;;;;;5005471;28;20034;-67
2022/07/03 10:27:56;;;;;;;7.00;2.33;;;23.00;59.10;;;;;;4986925;28;20549;-67
2022/07/03 10:30:23;;;;;;;6.77;1.20;;;23.00;59.20;;;;;;4989107;28;20054;-67
2022/07/03 10:32:52;;;;;;;2.80;1.17;;;22.80;59.50;;;;;;5006321;28;20866;-67
2022/07/03 10:35:38;;;;;;;4.60;1.30;;;22.70;60.40;;;;;;4985757;28;20386;-67
2022/07/03 10:38:12;;;;;;;3.70;0.68;;;22.90;60.90;;;;;;5004434;28;20049;-67
2022/07/03 10:46:29;;;;;;;3.60;0.87;;;23.00;57.90;;;;;;5005740;28;20120;-67
2022/07/03 10:49:07;;;;;;;1.50;0.40;;;23.20;59.40;;;;;;5005583;28;20072;-67
2022/07/03 10:51:45;;;;;;;3.90;0.70;;;23.30;56.10;;;;;;5005071;28;20053;-67
2022/07/03 10:54:15;;;;;;;6.37;0.80;;;23.20;57.20;;;;;;5002898;28;20050;-67
2022/07/03 10:57:02;;;;;;;3.60;0.63;;;23.10;56.70;;;;;;5003707;28;20041;-67
2022/07/03 11:02:22;;;;;;;;;;;23.40;57.60;;;;;;5004649;28;20060;-67
2022/07/03 11:05:06;;;;;;;2.70;0.70;;;23.30;57.00;;;;;;4998637;28;20362;-67
2022/07/03 11:07:38;;;;;;;3.47;1.00;;;23.30;57.70;;;;;;4980295;28;20042;-66
2022/07/03 11:10:10;;;;;;;2.53;0.80;;;23.60;56.50;;;;;;5001730;28;20045;-66
2022/07/03 11:13:03;;;;;;;3.97;0.50;;;23.60;56.30;;;;;;5018093;28;20096;-67
2022/07/03 11:15:42;;;;;;;5.60;0.97;;;23.70;55.60;;;;;;5004969;28;20124;-67
2022/07/03 11:18:15;;;;;;;2.97;0.80;;;23.70;56.00;;;;;;5004364;28;20049;-67
2022/07/03 11:20:44;;;;;;;3.43;1.27;;;24.00;56.10;;;;;;4999855;28;20045;-67
2022/07/03 11:23:09;;;;;;;1.47;0.73;;;24.20;54.50;;;;;;5015309;28;20129;-67
2022/07/03 11:25:43;;;;;;;3.83;0.73;;;24.10;54.60;;;;;;4996223;28;20136;-67
2022/07/03 11:28:47;;;;;;;1.50;0.60;;;24.00;54.30;;;;;;4982372;28;20534;-67
2022/07/03 11:31:16;;;;;;;1.73;0.60;;;23.60;56.10;;;;;;5018410;28;20319;-67
2022/07/03 11:33:54;;;;;;;4.00;0.60;;;23.50;56.50;;;;;;5000163;28;20049;-67
2022/07/03 11:36:33;;;;;;;3.13;0.80;;;23.30;57.00;;;;;;4973403;28;20549;-67
2022/07/03 11:38:59;;;;;;;3.07;0.60;;;23.20;57.70;;;;;;5015284;28;20477;-67
2022/07/03 11:41:46;;;;;;;2.43;0.43;;;23.00;57.30;;;;;;5003821;28;20138;-66
2022/07/03 11:44:18;;;;;;;4.20;0.40;;;23.10;57.10;;;;;;4984732;28;20485;-66
2022/07/03 11:46:48;;;;;;;2.43;0.60;;;23.20;57.40;;;;;;5016016;28;20092;-66
2022/07/03 11:49:20;;;;;;;2.87;0.60;;;23.50;57.00;;;;;;5003021;28;20033;-66
2022/07/03 11:51:58;;;;;;;1.93;0.40;;;23.60;56.00;;;;;;5001389;28;20105;-66
2022/07/03 11:54:25;;;;;;;2.17;0.30;;;23.60;55.50;;;;;;5003589;28;20099;-66
2022/07/03 11:56:50;;;;;;;2.70;0.60;;;23.70;56.00;;;;;;5001590;28;20330;-66
2022/07/03 11:59:17;;;;;;;2.27;0.80;;;23.70;56.40;;;;;;5001356;28;20462;-66
2022/07/03 12:01:43;;;;;;;1.27;0.43;;;24.00;55.60;;;;;;5003326;28;20045;-67
2022/07/03 12:04:18;;;;;;;3.97;1.03;;;24.30;55.10;;;;;;5004306;28;20123;-67
2022/07/03 12:06:49;;;;;;;1.23;0.30;;;24.40;53.60;;;;;;5002766;28;20145;-67
2022/07/03 12:09:18;;;;;;;2.27;0.40;;;24.20;54.20;;;;;;5003905;28;20224;-67
2022/07/03 12:12:22;;;;;;;2.40;0.50;;;24.30;54.60;;;;;;5003864;28;20490;-67
2022/07/03 12:14:49;;;;;;;1.50;0.80;;;24.40;53.20;;;;;;4991385;28;20057;-67
2022/07/03 12:17:19;;;;;;;2.37;0.60;;;24.30;53.80;;;;;;5002933;28;20049;-67
2022/07/03 12:19:45;;;;;;;2.00;0.67;;;24.20;55.50;;;;;;5002240;28;20863;-67
2022/07/03 12:22:11;;;;;;;1.77;0.50;;;24.10;54.70;;;;;;4982027;28;20050;-67
2022/07/03 12:24:37;;;;;;;1.00;0.50;;;24.10;54.60;;;;;;5003675;28;20117;-67
2022/07/03 12:27:04;;;;;;;3.87;0.80;;;24.10;55.20;;;;;;5003987;28;20037;-67
2022/07/03 12:29:31;;;;;;;2.80;0.80;;;24.10;55.50;;;;;;5002782;28;20394;-67
2022/07/03 12:31:57;;;;;;;4.57;0.57;;;24.10;56.50;;;;;;5003087;28;20565;-67
2022/07/03 12:34:23;;;;;;;2.33;0.73;;;24.00;56.40;;;;;;5002862;28;20045;-67
2022/07/03 12:36:59;;;;;;;2.10;0.70;;;24.00;56.10;;;;;;5004146;28;20498;-67
2022/07/03 12:39:47;;;;;;;1.90;0.80;;;24.00;56.20;;;;;;5002209;28;20387;-67
2022/07/03 12:42:22;;;;;;;2.83;0.60;;;23.90;56.20;;;;;;5017947;28;20054;-67
2022/07/03 12:44:58;;;;;;;1.00;0.40;;;24.00;55.50;;;;;;5011379;28;20073;-65
2022/07/03 12:47:25;;;;;;;0.93;0.50;;;23.80;55.40;;;;;;4983491;28;20117;-67
2022/07/03 12:50:09;;;;;;;2.97;0.50;;;23.70;56.40;;;;;;5003407;28;20131;-66
2022/07/03 12:52:50;;;;;;;2.70;0.90;;;23.60;55.80;;;;;;5002285;28;20486;-66
2022/07/03 12:55:27;;;;;;;1.30;0.60;;;23.50;55.80;;;;;;5002295;28;20125;-66
2022/07/03 13:01:06;;;;;;;2.27;0.40;;;23.40;55.70;;;;;;4999402;28;20123;-66
2022/07/03 13:03:37;;;;;;;2.00;0.40;;;23.40;55.10;;;;;;5002171;28;20050;-66
2022/07/03 13:06:13;;;;;;;1.73;0.37;;;23.30;55.30;;;;;;4996645;28;20402;-66
2022/07/03 13:08:48;;;;;;;1.40;0.30;;;23.20;54.60;;;;;;5000061;28;20065;-66
2022/07/03 13:11:13;;;;;;;1.50;0.47;;;22.90;53.50;;;;;;5002650;28;20046;-66
2022/07/03 13:13:47;;;;;;;0.53;0.30;;;22.50;54.20;;;;;;5013649;28;20521;-66
2022/07/03 13:16:24;;;;;;;0.57;0.22;;;22.30;54.70;;;;;;5003541;28;20422;-66